Time;durP1;ratioP1;P1;durP2;ratioP2;P2;SDS_P1;SDS_P2;PMS_P1;PMS_P2;Temp;Humidity;BMP_temperature;BMP_pressure;BME280_temperature;BME280_humidity;BME280_pressure;Samples;Min_cycle;Max_cycle;Signal;HPM_P1;HPM_P2
2022/10/16 00:08:02;;;;;;;17.90;11.70;;;19.70;48.70;;;;;;21088213;28;20473;-59
2022/10/16 00:18:04;;;;;;;13.02;5.82;;;19.60;48.90;;;;;;21087576;28;20105;-59
2022/10/16 00:28:06;;;;;;;11.63;6.00;;;19.40;49.30;;;;;;21086291;28;20082;-58
2022/10/16 00:38:08;;;;;;;14.48;6.20;;;19.40;49.10;;;;;;21084490;28;20044;-58
2022/10/16 00:48:14;;;;;;;12.00;6.22;;;19.30;49.10;;;;;;21083570;28;20088;-59
2022/10/16 00:58:16;;;;;;;9.05;5.72;;;19.10;50.50;;;;;;21083667;28;20051;-59
2022/10/16 01:08:39;;;;;;;11.10;5.38;;;18.90;51.40;;;;;;21082537;28;20055;-58
2022/10/16 01:18:47;;;;;;;9.93;5.07;;;18.80;51.70;;;;;;21055856;28;20048;-59
2022/10/16 01:29:01;;;;;;;8.85;4.85;;;18.60;53.00;;;;;;21081730;28;20044;-58
2022/10/16 01:39:09;;;;;;;;;;;18.30;53.60;;;;;;21081011;28;20480;-58
2022/10/16 01:49:15;;;;;;;8.65;4.70;;;18.20;53.90;;;;;;21079231;28;19920;-58
2022/10/16 01:59:23;;;;;;;8.65;4.45;;;18.10;54.60;;;;;;21079703;28;20044;-58
2022/10/16 02:09:30;;;;;;;7.55;4.78;;;18.00;55.20;;;;;;21078159;28;20488;-57
2022/10/16 02:19:48;;;;;;;8.35;5.47;;;17.80;55.60;;;;;;21078277;28;20052;-58
2022/10/16 02:30:08;;;;;;;9.88;4.38;;;17.70;56.30;;;;;;21078441;28;20389;-59
2022/10/16 02:40:21;;;;;;;8.27;4.40;;;17.60;56.70;;;;;;21062754;28;20052;-59
2022/10/16 02:50:26;;;;;;;7.32;5.10;;;17.70;56.30;;;;;;21060585;28;20059;-59
2022/10/16 03:00:30;;;;;;;6.65;5.20;;;17.60;56.20;;;;;;21077431;28;20172;-59
2022/10/16 03:10:34;;;;;;;8.40;5.37;;;17.60;55.90;;;;;;21076290;28;20054;-59
2022/10/16 03:20:39;;;;;;;7.93;5.05;;;17.70;54.90;;;;;;21081352;28;20048;-58
2022/10/16 03:30:43;;;;;;;7.47;5.20;;;17.70;55.10;;;;;;21083212;28;20075;-57
2022/10/16 03:40:48;;;;;;;8.85;5.28;;;17.70;55.10;;;;;;21089180;28;20157;-58
2022/10/16 03:50:52;;;;;;;12.45;5.13;;;17.60;56.20;;;;;;21088582;28;20058;-58
2022/10/16 04:00:55;;;;;;;8.30;5.17;;;17.30;57.30;;;;;;21089131;28;20048;-58
2022/10/16 04:10:58;;;;;;;8.23;4.20;;;17.10;57.00;;;;;;21087731;28;20048;-60
2022/10/16 04:21:05;;;;;;;5.93;4.22;;;16.70;58.20;;;;;;21086157;28;20087;-58
2022/10/16 04:31:08;;;;;;;7.28;4.15;;;16.40;59.60;;;;;;21085069;28;20052;-57
2022/10/16 04:41:11;;;;;;;9.75;4.80;;;16.20;60.30;;;;;;21084702;28;20048;-59
2022/10/16 04:51:14;;;;;;;6.53;4.10;;;16.20;60.50;;;;;;21083899;28;20109;-58
2022/10/16 05:01:17;;;;;;;7.07;5.10;;;16.10;60.90;;;;;;21083147;28;20372;-58
2022/10/16 05:11:19;;;;;;;7.85;4.40;;;15.80;61.40;;;;;;21081928;28;20059;-58
2022/10/16 05:21:22;;;;;;;7.47;5.00;;;15.70;61.70;;;;;;21081469;28;20540;-58
2022/10/16 05:31:25;;;;;;;8.77;4.78;;;15.70;62.20;;;;;;21080769;28;20077;-62
2022/10/16 05:41:28;;;;;;;6.40;5.00;;;15.60;62.20;;;;;;21061133;28;20109;-58
2022/10/16 05:51:30;;;;;;;9.18;5.53;;;15.70;62.10;;;;;;21080328;28;20455;-58
2022/10/16 06:01:33;;;;;;;6.95;4.80;;;15.70;62.20;;;;;;21079056;28;20051;-59
2022/10/16 06:11:36;;;;;;;6.60;4.32;;;15.60;62.50;;;;;;21079591;28;20052;-59
2022/10/16 06:21:41;;;;;;;6.53;4.53;;;15.40;63.10;;;;;;21078332;28;20059;-58
2022/10/16 06:31:43;;;;;;;18.10;6.25;;;15.20;63.70;;;;;;21078353;28;20048;-57
2022/10/16 06:41:45;;;;;;;6.53;4.97;;;15.20;63.60;;;;;;21077507;28;20469;-58
2022/10/16 06:51:48;;;;;;;6.55;4.55;;;15.20;63.60;;;;;;21078126;28;20401;-59
2022/10/16 07:01:52;;;;;;;;;;;15.10;63.90;;;;;;21075067;28;20074;-58
2022/10/16 07:11:53;;;;;;;6.85;5.03;;;15.00;64.00;;;;;;21092202;28;20296;-59
2022/10/16 07:21:56;;;;;;;7.85;5.60;;;15.10;64.20;;;;;;21091147;28;20048;-59
2022/10/16 07:31:59;;;;;;;7.73;5.53;;;15.10;64.20;;;;;;21090597;28;20161;-59
2022/10/16 07:42:02;;;;;;;8.90;6.38;;;15.40;63.70;;;;;;21088915;28;20153;-58
2022/10/16 07:52:04;;;;;;;9.10;5.80;;;15.60;63.10;;;;;;21087947;28;20047;-59
2022/10/16 08:02:07;;;;;;;15.07;6.13;;;15.80;62.10;;;;;;21088196;28;20083;-59
2022/10/16 08:12:10;;;;;;;12.60;6.78;;;15.90;61.20;;;;;;21086024;28;20051;-58
2022/10/16 08:22:13;;;;;;;10.05;6.70;;;16.20;60.70;;;;;;21085555;28;20040;-58
2022/10/16 08:32:15;;;;;;;10.38;7.95;;;16.50;59.30;;;;;;21084657;28;20102;-58
2022/10/16 08:42:27;;;;;;;24.60;19.45;;;16.90;57.90;;;;;;21084098;28;20531;-58
2022/10/16 08:52:35;;;;;;;11.45;8.35;;;17.30;56.70;;;;;;21083645;28;20047;-58
2022/10/16 09:02:49;;;;;;;11.68;6.28;;;17.70;55.50;;;;;;21082394;28;20055;-59
2022/10/16 09:13:07;;;;;;;15.35;8.43;;;18.20;51.90;;;;;;21082154;28;20128;-57
2022/10/16 09:23:15;;;;;;;17.42;9.60;;;18.60;50.80;;;;;;21082396;28;20404;-59
2022/10/16 09:33:21;;;;;;;19.70;8.68;;;19.00;49.80;;;;;;21079846;28;20497;-58
2022/10/16 09:43:36;;;;;;;19.67;8.52;;;19.30;48.70;;;;;;21078459;28;20074;-58
2022/10/16 09:53:41;;;;;;;16.13;8.33;;;19.60;48.70;;;;;;21079281;28;20056;-59
2022/10/16 10:03:45;;;;;;;10.50;5.57;;;19.90;48.50;;;;;;21062169;28;20148;-58
2022/10/16 10:13:47;;;;;;;7.68;4.63;;;20.20;47.70;;;;;;21078726;28;20048;-58
2022/10/16 10:23:56;;;;;;;13.55;6.57;;;20.60;46.80;;;;;;21078444;28;20155;-59
2022/10/16 10:34:19;;;;;;;18.33;5.65;;;20.90;46.20;;;;;;21089340;28;20098;-60
2022/10/16 10:44:21;;;;;;;9.70;4.85;;;21.10;45.50;;;;;;21075077;28;20500;-60
2022/10/16 10:54:39;;;;;;;10.57;5.07;;;21.20;45.20;;;;;;21093297;28;20100;-59
2022/10/16 11:05:08;;;;;;;14.00;4.72;;;21.40;45.30;;;;;;21091798;28;20050;-58
2022/10/16 11:15:22;;;;;;;15.00;5.97;;;21.60;44.20;;;;;;21090581;28;20484;-60
2022/10/16 11:25:30;;;;;;;10.15;4.82;;;21.90;44.00;;;;;;21091117;28;20416;-59
2022/10/16 11:35:50;;;;;;;19.40;12.60;;;22.10;43.80;;;;;;21088798;28;20044;-58
2022/10/16 11:45:54;;;;;;;10.63;5.75;;;22.30;43.50;;;;;;21087645;28;20052;-57
2022/10/16 11:55:56;;;;;;;15.75;4.30;;;22.30;43.00;;;;;;21088499;28;20055;-57
2022/10/16 12:06:19;;;;;;;10.57;3.83;;;22.40;42.70;;;;;;21166104;28;20108;-59
2022/10/16 12:16:22;;;;;;;8.33;4.70;;;22.60;42.20;;;;;;21171771;28;20509;-57
2022/10/16 12:26:37;;;;;;;10.85;4.00;;;22.80;41.60;;;;;;21171170;28;20059;-60
2022/10/16 12:36:40;;;;;;;8.68;3.95;;;23.10;41.50;;;;;;21169314;28;20479;-58
2022/10/16 12:46:43;;;;;;;8.35;4.10;;;23.20;41.30;;;;;;21166558;28;20052;-60
2022/10/16 12:57:09;;;;;;;11.18;5.63;;;23.30;41.40;;;;;;21167500;28;20095;-59
2022/10/16 13:07:20;;;;;;;13.43;5.43;;;23.60;41.50;;;;;;21167100;28;20097;-61
2022/10/16 13:17:33;;;;;;;9.07;4.15;;;24.10;39.60;;;;;;21166151;28;20055;-60
2022/10/16 13:27:43;;;;;;;13.52;3.97;;;24.20;39.20;;;;;;21166089;28;20079;-61
2022/10/16 13:37:46;;;;;;;13.88;4.07;;;24.40;39.20;;;;;;21166058;28;20425;-59
2022/10/16 13:47:48;;;;;;;;;;;24.40;38.80;;;;;;21164179;28;20436;-60
2022/10/16 13:57:49;;;;;;;8.32;3.17;;;24.40;38.40;;;;;;21163712;28;20061;-59
2022/10/16 14:07:53;;;;;;;9.50;4.65;;;24.30;38.30;;;;;;21162043;28;20088;-58
2022/10/16 14:17:54;;;;;;;8.40;3.33;;;24.30;38.60;;;;;;21162764;28;20039;-59
2022/10/16 14:28:08;;;;;;;4.97;3.63;;;24.60;38.00;;;;;;21162119;28;20047;-59
2022/10/16 14:38:19;;;;;;;9.40;3.28;;;24.80;37.90;;;;;;21162380;28;20120;-59
2022/10/16 14:48:21;;;;;;;7.28;2.97;;;24.90;37.00;;;;;;21162183;28;20496;-61
2022/10/16 14:58:24;;;;;;;6.83;3.20;;;25.10;36.00;;;;;;21162178;28;20075;-59
2022/10/16 15:08:26;;;;;;;12.27;3.35;;;24.90;36.50;;;;;;21161961;28;20075;-60
2022/10/16 15:18:28;;;;;;;10.70;4.87;;;25.00;36.50;;;;;;21172322;28;20126;-61
2022/10/16 15:28:30;;;;;;;8.35;2.90;;;25.00;36.80;;;;;;21174503;28;20051;-59
2022/10/16 15:38:32;;;;;;;10.30;3.77;;;25.00;36.80;;;;;;21175599;28;20388;-59
2022/10/16 15:48:33;;;;;;;13.60;3.60;;;24.90;37.30;;;;;;21173839;28;20307;-60
2022/10/16 15:58:35;;;;;;;7.70;3.80;;;24.90;37.40;;;;;;21173489;28;20075;-60
2022/10/16 16:08:38;;;;;;;10.03;3.70;;;24.90;37.80;;;;;;21173727;28;20055;-61
2022/10/16 16:18:44;;;;;;;9.32;3.60;;;24.80;36.70;;;;;;21171414;28;20464;-59
2022/10/16 16:28:46;;;;;;;10.65;4.45;;;24.70;36.30;;;;;;21170903;28;20517;-61
2022/10/16 16:38:48;;;;;;;13.30;5.03;;;24.60;37.30;;;;;;21169116;28;20044;-60
2022/10/16 16:48:53;;;;;;;7.78;4.35;;;24.60;38.10;;;;;;21168685;28;20048;-59
2022/10/16 16:58:56;;;;;;;10.23;4.07;;;24.50;37.70;;;;;;21168070;28;20091;-61
2022/10/16 17:09:02;;;;;;;14.20;4.40;;;24.40;36.30;;;;;;21167142;28;20393;-59
2022/10/16 17:19:13;;;;;;;9.85;4.95;;;24.30;35.70;;;;;;21167189;28;20070;-59
2022/10/16 17:29:17;;;;;;;8.38;3.35;;;24.20;35.90;;;;;;21164260;28;20048;-58
2022/10/16 17:39:19;;;;;;;10.98;4.95;;;24.10;35.80;;;;;;21163671;27;20055;-60
2022/10/16 17:49:22;;;;;;;22.63;12.65;;;23.90;36.50;;;;;;21164014;28;20054;-59
2022/10/16 17:59:25;;;;;;;14.98;7.30;;;23.70;36.70;;;;;;21161998;28;20050;-59
2022/10/16 18:09:27;;;;;;;20.13;8.17;;;23.60;38.10;;;;;;21163675;28;20102;-59
2022/10/16 18:19:29;;;;;;;19.55;7.40;;;23.30;37.60;;;;;;21162966;28;20051;-59
2022/10/16 18:29:31;;;;;;;24.57;11.13;;;23.20;38.50;;;;;;21164497;28;20047;-57
2022/10/16 18:39:33;;;;;;;17.27;9.52;;;23.00;37.90;;;;;;21161577;28;20112;-59
2022/10/16 18:49:35;;;;;;;21.50;9.45;;;22.90;38.30;;;;;;21164554;28;20083;-59
2022/10/16 18:59:38;;;;;;;21.80;8.45;;;22.60;39.60;;;;;;21176971;28;20488;-60
2022/10/16 19:09:40;;;;;;;15.23;7.43;;;22.50;41.70;;;;;;21177402;28;20135;-58
2022/10/16 19:19:42;;;;;;;12.40;6.65;;;22.40;44.20;;;;;;21174703;28;20457;-61
2022/10/16 19:29:44;;;;;;;13.13;5.10;;;22.20;46.10;;;;;;21175949;28;20079;-58
2022/10/16 19:39:48;;;;;;;16.67;5.33;;;22.00;46.60;;;;;;21176175;28;20049;-60
2022/10/16 19:49:51;;;;;;;13.55;5.15;;;21.80;47.20;;;;;;21173588;28;20067;-59
2022/10/16 19:59:53;;;;;;;13.57;5.40;;;21.70;47.60;;;;;;21171263;28;20065;-58
2022/10/16 20:09:55;;;;;;;10.97;4.70;;;21.60;48.10;;;;;;21171357;28;20047;-59
2022/10/16 20:19:56;;;;;;;11.00;6.35;;;21.50;48.40;;;;;;21172060;28;20071;-58
2022/10/16 20:29:59;;;;;;;16.23;8.17;;;21.60;48.30;;;;;;21151346;28;20047;-59
2022/10/16 20:40:00;;;;;;;12.82;6.97;;;21.70;48.20;;;;;;21169719;28;20051;-59
2022/10/16 20:50:02;;;;;;;12.55;6.00;;;21.60;48.40;;;;;;21167647;28;20116;-58
2022/10/16 21:00:05;;;;;;;10.90;5.20;;;21.40;48.60;;;;;;21169106;28;20376;-58
2022/10/16 21:10:07;;;;;;;15.38;5.78;;;21.30;48.90;;;;;;21166732;28;20105;-57
2022/10/16 21:20:09;;;;;;;9.23;4.13;;;21.20;48.80;;;;;;21165993;28;20130;-59
2022/10/16 21:30:12;;;;;;;11.00;4.75;;;21.20;49.00;;;;;;21148685;28;20059;-58
2022/10/16 21:40:17;;;;;;;10.93;4.28;;;21.10;49.60;;;;;;21165374;28;20082;-59
2022/10/16 21:50:18;;;;;;;10.68;4.38;;;21.10;50.20;;;;;;21163001;28;20063;-59
2022/10/16 22:00:20;;;;;;;10.73;4.80;;;21.00;49.90;;;;;;21164945;28;20109;-58
2022/10/16 22:10:21;;;;;;;12.45;4.93;;;20.90;50.30;;;;;;21162873;28;20088;-58
2022/10/16 22:20:23;;;;;;;14.82;5.22;;;20.80;50.40;;;;;;21161933;28;20083;-58
2022/10/16 22:30:25;;;;;;;9.40;4.72;;;20.80;50.60;;;;;;21177039;28;20494;-57
2022/10/16 22:40:26;;;;;;;12.10;5.25;;;20.70;51.20;;;;;;21178828;28;20472;-56
2022/10/16 22:50:34;;;;;;;11.15;5.43;;;20.90;51.10;;;;;;21179230;28;20082;-58
2022/10/16 23:00:35;;;;;;;12.55;6.15;;;21.00;51.60;;;;;;21159956;28;20044;-59
2022/10/16 23:10:40;;;;;;;12.70;6.45;;;21.10;53.30;;;;;;21176768;28;20051;-57
2022/10/16 23:20:42;;;;;;;11.35;6.60;;;20.90;56.50;;;;;;21176574;28;20122;-58
2022/10/16 23:30:44;;;;;;;16.42;6.30;;;21.00;55.40;;;;;;21175851;28;20051;-57
2022/10/16 23:40:53;;;;;;;10.80;6.50;;;21.00;57.40;;;;;;21158011;28;20048;-58
2022/10/16 23:50:55;;;;;;;11.85;6.82;;;20.90;56.30;;;;;;21175024;28;20048;-58
